Mainsville, Pennsylvania
Current Conditions -  °F | °C
As of 11:53 PM on Friday 28 Nov 2014 (Local Time) from KRYT Reporting Station
Overcast Overcast  
Wind Chill: 24°   Ceiling: 7500
Heat Index: 24°   Visibility: 10mi
Dew Point: 18°   Wind: 0mph
Humidity: 77%   Direction: NA
Pressure: 30.23"   Gusts: NA
Location:  40.0414°N, 77.4967°W
Report Text: KRYT 290453Z AUTO 00000KT 10SM BKN075 OVC100 M04/M08 A3023 RMK AO2 SLP257 T10441078 400061056 $
Loading
Personal Weather Stations






























Interactive Weather Map New forecast layout! Learn more

10-Day Weather Forecast

Advertisements
Track Severe Weather on mobile